LVNO2: Poteau River At Loving, OK

Data processed at Wed Mar 04 23:52:26 2015 Central Standard Time


All information presented herein is the property of the government of the United States of America and may be revised or deleted at any time without prior notice.
Dissemination of this information without the expressed written consent of the Public Affairs Office, Tulsa District U.S. Army Corps of Engineers is strictly prohibited.
These data are gathered electronically and, as presented, have not undergone any form of quality control. These data are not guaranteed to be valid or correct.
Go to home page.
Go to station list.
Go to station map.

Upstream stations:

Downstream station: Previous Day
Next Day
Current Day

Display graphics.
Display DCP transmissions.


    
    SHEF ID:       LVNO2     Poteau River At Loving, OK
    STATION TYPE:  STREAM GAGE
    Regulation Limits:  Stage =   20.00, Flow =    4186
    
                    STAGE  RIV-FLOW  BAT-LOAD
                     FEET       CFS     VOLTS
                     GOES      GOES      GOES
       (Cen)
    03/04 01:00     11.66       737     12.65
    03/04 02:00     11.88       824     12.65
    03/04 03:00     12.14       922     12.60
    03/04 04:00     12.45      1040     12.60
    03/04 05:00     12.76      1156     12.60
    03/04 06:00     13.11      1287     12.60
    03/04 07:00     13.47      1422     12.60
    03/04 08:00     13.80      1546     12.60
    03/04 09:00     14.08      1651     12.65
    03/04 10:00     14.30      1734     12.71
    03/04 11:00     14.47      1798     12.65
    03/04 12:00     14.56      1836     12.71
    03/04 13:00     14.62      1861     12.83
    03/04 14:00     14.65      1873     12.89
    03/04 15:00     14.66      1877     12.89
    03/04 16:00     14.65      1873     12.95
    03/04 17:00     14.68      1886     12.89
    03/04 18:00     14.80      1931     12.83
    03/04 19:00     14.93      1980     12.71
    03/04 20:00     15.06      2034     12.65
    03/04 21:00     15.19      2088     12.60
    03/04 22:00     15.33      2147     12.60
    03/04 23:00     15.52      2221     12.54
    03/05 00:00      ----      ----      ----